sensor_id;sensor_type;location;lat;lon;timestamp;pressure;altitude;pressure_sealevel;temperature;humidity
54540;BME280;40438;52.992;18.604;2023-01-08T00:01:35;100902.22;;;4.45;100.00
54540;BME280;40438;52.992;18.604;2023-01-08T00:04:01;100906.03;;;4.42;100.00
54540;BME280;40438;52.992;18.604;2023-01-08T00:06:27;100917.78;;;4.48;100.00
54540;BME280;40438;52.992;18.604;2023-01-08T00:08:54;100913.00;;;4.35;100.00
54540;BME280;40438;52.992;18.604;2023-01-08T00:11:20;100921.41;;;4.47;100.00
54540;BME280;40438;52.992;18.604;2023-01-08T00:13:46;100911.31;;;4.42;100.00
54540;BME280;40438;52.992;18.604;2023-01-08T00:16:13;100912.00;;;4.36;100.00
54540;BME280;40438;52.992;18.604;2023-01-08T00:18:39;100914.66;;;4.45;100.00
54540;BME280;40438;52.992;18.604;2023-01-08T00:21:05;100910.31;;;4.52;100.00
54540;BME280;40438;52.992;18.604;2023-01-08T00:23:31;100907.66;;;4.43;100.00
54540;BME280;40438;52.992;18.604;2023-01-08T00:26:01;100910.63;;;4.57;100.00
54540;BME280;40438;52.992;18.604;2023-01-08T00:28:27;100904.34;;;4.50;100.00
54540;BME280;40438;52.992;18.604;2023-01-08T00:30:52;100899.22;;;4.48;100.00
54540;BME280;40438;52.992;18.604;2023-01-08T00:33:18;100903.50;;;4.49;100.00
54540;BME280;40438;52.992;18.604;2023-01-08T00:35:44;100903.84;;;4.54;100.00
54540;BME280;40438;52.992;18.604;2023-01-08T00:38:10;100898.34;;;4.56;100.00
54540;BME280;40438;52.992;18.604;2023-01-08T00:40:36;100902.34;;;4.52;100.00
54540;BME280;40438;52.992;18.604;2023-01-08T00:43:03;100894.88;;;4.55;100.00
54540;BME280;40438;52.992;18.604;2023-01-08T00:45:29;100890.78;;;4.45;100.00
54540;BME280;40438;52.992;18.604;2023-01-08T00:47:55;100878.50;;;4.43;100.00
54540;BME280;40438;52.992;18.604;2023-01-08T00:50:20;100881.13;;;4.52;100.00
54540;BME280;40438;52.992;18.604;2023-01-08T00:52:46;100878.50;;;4.43;100.00
54540;BME280;40438;52.992;18.604;2023-01-08T00:55:12;100885.94;;;4.48;100.00
54540;BME280;40438;52.992;18.604;2023-01-08T00:57:38;100882.09;;;4.59;100.00
54540;BME280;40438;52.992;18.604;2023-01-08T01:00:08;100886.91;;;4.63;100.00
54540;BME280;40438;52.992;18.604;2023-01-08T01:02:34;100881.63;;;4.55;100.00
54540;BME280;40438;52.992;18.604;2023-01-08T01:05:00;100879.78;;;4.56;100.00
54540;BME280;40438;52.992;18.604;2023-01-08T01:07:26;100884.44;;;4.54;100.00
54540;BME280;40438;52.992;18.604;2023-01-08T01:09:52;100878.47;;;4.60;100.00
54540;BME280;40438;52.992;18.604;2023-01-08T01:12:18;100881.13;;;4.52;100.00
54540;BME280;40438;52.992;18.604;2023-01-08T01:14:43;100874.84;;;4.45;100.00
54540;BME280;40438;52.992;18.604;2023-01-08T01:17:11;100874.19;;;4.51;100.00
54540;BME280;40438;52.992;18.604;2023-01-08T01:19:37;100870.53;;;4.52;100.00
54540;BME280;40438;52.992;18.604;2023-01-08T01:22:03;100867.19;;;4.50;100.00
54540;BME280;40438;52.992;18.604;2023-01-08T01:24:28;100862.91;;;4.49;100.00
54540;BME280;40438;52.992;18.604;2023-01-08T01:26:54;100860.94;;;4.42;100.00
54540;BME280;40438;52.992;18.604;2023-01-08T01:29:20;100867.88;;;4.43;100.00
54540;BME280;40438;52.992;18.604;2023-01-08T01:31:46;100855.63;;;4.51;100.00
54540;BME280;40438;52.992;18.604;2023-01-08T01:34:13;100858.56;;;4.56;100.00
54540;BME280;40438;52.992;18.604;2023-01-08T01:36:39;100851.81;;;4.45;100.00
54540;BME280;40438;52.992;18.604;2023-01-08T01:39:04;100848.81;;;4.48;100.00
54540;BME280;40438;52.992;18.604;2023-01-08T01:41:33;100840.53;;;4.43;100.00
54540;BME280;40438;52.992;18.604;2023-01-08T01:47:00;100836.91;;;4.36;100.00
54540;BME280;40438;52.992;18.604;2023-01-08T01:49:28;100828.44;;;4.40;100.00
54540;BME280;40438;52.992;18.604;2023-01-08T01:51:56;100836.78;;;4.29;100.00
54540;BME280;40438;52.992;18.604;2023-01-08T01:54:24;100834.13;;;4.29;100.00
54540;BME280;40438;52.992;18.604;2023-01-08T01:56:49;100830.50;;;4.22;100.00
54540;BME280;40438;52.992;18.604;2023-01-08T01:59:15;100829.50;;;4.23;100.00
54540;BME280;40438;52.992;18.604;2023-01-08T02:01:41;100833.16;;;4.22;100.00
54540;BME280;40438;52.992;18.604;2023-01-08T02:04:08;100822.72;;;4.21;100.00
54540;BME280;40438;52.992;18.604;2023-01-08T02:06:38;100830.47;;;4.30;100.00
54540;BME280;40438;52.992;18.604;2023-01-08T02:09:13;100831.47;;;4.29;100.00
54540;BME280;40438;52.992;18.604;2023-01-08T02:11:46;100824.53;;;4.20;100.00
54540;BME280;40438;52.992;18.604;2023-01-08T02:14:18;100823.19;;;4.24;100.00
54540;BME280;40438;52.992;18.604;2023-01-08T02:16:52;100810.97;;;4.15;100.00
54540;BME280;40438;52.992;18.604;2023-01-08T02:19:34;100817.28;;;4.06;100.00
54540;BME280;40438;52.992;18.604;2023-01-08T02:22:13;100795.59;;;4.02;100.00
54540;BME280;40438;52.992;18.604;2023-01-08T02:24:52;100797.59;;;4.00;100.00
54540;BME280;40438;52.992;18.604;2023-01-08T02:27:23;100782.66;;;3.99;100.00
54540;BME280;40438;52.992;18.604;2023-01-08T02:29:50;100780.03;;;3.99;100.00
54540;BME280;40438;52.992;18.604;2023-01-08T02:32:18;100785.81;;;4.03;100.00
54540;BME280;40438;52.992;18.604;2023-01-08T02:34:43;100784.16;;;4.02;100.00
54540;BME280;40438;52.992;18.604;2023-01-08T02:37:09;100779.19;;;3.99;100.00
54540;BME280;40438;52.992;18.604;2023-01-08T02:39:52;100780.69;;;3.93;100.00
54540;BME280;40438;52.992;18.604;2023-01-08T02:42:30;100776.25;;;3.93;100.00
54540;BME280;40438;52.992;18.604;2023-01-08T02:45:09;100779.19;;;3.99;100.00
54540;BME280;40438;52.992;18.604;2023-01-08T02:47:41;100770.09;;;3.93;100.00
54540;BME280;40438;52.992;18.604;2023-01-08T02:50:16;100774.75;;;3.91;100.00
54540;BME280;40438;52.992;18.604;2023-01-08T02:52:51;100772.75;;;3.93;100.00
54540;BME280;40438;52.992;18.604;2023-01-08T02:55:19;100774.91;;;3.89;100.00
54540;BME280;40438;52.992;18.604;2023-01-08T02:57:48;100774.38;;;4.02;100.00
54540;BME280;40438;52.992;18.604;2023-01-08T03:00:15;100766.28;;;4.04;100.00
54540;BME280;40438;52.992;18.604;2023-01-08T03:02:41;100764.78;;;4.01;100.00
54540;BME280;40438;52.992;18.604;2023-01-08T03:05:13;100765.78;;;4.00;100.00
54540;BME280;40438;52.992;18.604;2023-01-08T03:07:41;100762.66;;;3.88;100.00
54540;BME280;40438;52.992;18.604;2023-01-08T03:10:08;100763.34;;;3.82;100.00
54540;BME280;40438;52.992;18.604;2023-01-08T03:12:43;100769.81;;;3.80;100.00
54540;BME280;40438;52.992;18.604;2023-01-08T03:15:14;100764.50;;;3.80;100.00
54540;BME280;40438;52.992;18.604;2023-01-08T03:17:43;100770.28;;;3.83;100.00
54540;BME280;40438;52.992;18.604;2023-01-08T03:20:14;100766.19;;;3.81;100.00
54540;BME280;40438;52.992;18.604;2023-01-08T03:22:44;100771.47;;;3.72;100.00
54540;BME280;40438;52.992;18.604;2023-01-08T03:25:13;100759.06;;;3.73;100.00
54540;BME280;40438;52.992;18.604;2023-01-08T03:27:42;100759.06;;;3.73;100.00
54540;BME280;40438;52.992;18.604;2023-01-08T03:30:11;100757.06;;;3.75;100.00
54540;BME280;40438;52.992;18.604;2023-01-08T03:32:40;100760.22;;;3.70;100.00
54540;BME280;40438;52.992;18.604;2023-01-08T03:35:08;100754.75;;;3.64;100.00
54540;BME280;40438;52.992;18.604;2023-01-08T03:37:38;100759.56;;;3.60;100.00
54540;BME280;40438;52.992;18.604;2023-01-08T03:40:09;100750.28;;;3.64;100.00
54540;BME280;40438;52.992;18.604;2023-01-08T03:42:36;100752.97;;;3.56;100.00
54540;BME280;40438;52.992;18.604;2023-01-08T03:45:02;100754.94;;;3.54;100.00
54540;BME280;40438;52.992;18.604;2023-01-08T03:47:31;100750.81;;;3.52;100.00
54540;BME280;40438;52.992;18.604;2023-01-08T03:50:01;100748.50;;;3.57;100.00
54540;BME280;40438;52.992;18.604;2023-01-08T03:52:29;100746.69;;;3.49;100.00
54540;BME280;40438;52.992;18.604;2023-01-08T03:54:55;100739.56;;;3.49;100.00
54540;BME280;40438;52.992;18.604;2023-01-08T03:57:21;100736.78;;;3.43;100.00
54540;BME280;40438;52.992;18.604;2023-01-08T03:59:47;100739.91;;;3.38;100.00
54540;BME280;40438;52.992;18.604;2023-01-08T04:02:13;100727.97;;;3.42;100.00
54540;BME280;40438;52.992;18.604;2023-01-08T04:04:40;100719.72;;;3.37;100.00
54540;BME280;40438;52.992;18.604;2023-01-08T04:07:07;100716.41;;;3.35;100.00
54540;BME280;40438;52.992;18.604;2023-01-08T04:09:34;100714.75;;;3.34;100.00
54540;BME280;40438;52.992;18.604;2023-01-08T04:11:59;100709.13;;;3.29;100.00
54540;BME280;40438;52.992;18.604;2023-01-08T04:14:25;100699.88;;;3.33;100.00
54540;BME280;40438;52.992;18.604;2023-01-08T04:16:52;100693.59;;;3.34;100.00
54540;BME280;40438;52.992;18.604;2023-01-08T04:19:17;100686.47;;;3.35;100.00
54540;BME280;40438;52.992;18.604;2023-01-08T04:21:44;100695.56;;;3.40;100.00
54540;BME280;40438;52.992;18.604;2023-01-08T04:24:11;100705.50;;;3.30;100.00
54540;BME280;40438;52.992;18.604;2023-01-08T04:26:37;100710.81;;;3.30;100.00
54540;BME280;40438;52.992;18.604;2023-01-08T04:29:03;100703.34;;;3.34;100.00
54540;BME280;40438;52.992;18.604;2023-01-08T04:31:29;100708.31;;;3.37;100.00
54540;BME280;40438;52.992;18.604;2023-01-08T04:33:54;100720.06;;;3.34;100.00
54540;BME280;40438;52.992;18.604;2023-01-08T04:36:20;100717.06;;;3.37;100.00
54540;BME280;40438;52.992;18.604;2023-01-08T04:38:47;100717.03;;;3.45;100.00
54540;BME280;40438;52.992;18.604;2023-01-08T04:41:13;100719.53;;;3.39;100.00
54540;BME280;40438;52.992;18.604;2023-01-08T04:43:39;100719.38;;;3.40;100.00
54540;BME280;40438;52.992;18.604;2023-01-08T04:46:05;100710.94;;;3.29;100.00
54540;BME280;40438;52.992;18.604;2023-01-08T04:48:31;100708.97;;;3.31;100.00
54540;BME280;40438;52.992;18.604;2023-01-08T04:50:57;100684.81;;;3.25;100.00
54540;BME280;40438;52.992;18.604;2023-01-08T04:53:23;100676.72;;;3.27;100.00
54540;BME280;40438;52.992;18.604;2023-01-08T04:55:50;100681.00;;;3.20;100.00
54540;BME280;40438;52.992;18.604;2023-01-08T04:58:16;100677.22;;;3.22;100.00
54540;BME280;40438;52.992;18.604;2023-01-08T05:00:42;100682.16;;;3.25;100.00
54540;BME280;40438;52.992;18.604;2023-01-08T05:03:08;100684.00;;;3.25;100.00
54540;BME280;40438;52.992;18.604;2023-01-08T05:05:34;100685.81;;;3.24;100.00
54540;BME280;40438;52.992;18.604;2023-01-08T05:08:00;100677.06;;;3.24;100.00
54540;BME280;40438;52.992;18.604;2023-01-08T05:10:25;100657.03;;;3.21;100.00
54540;BME280;40438;52.992;18.604;2023-01-08T05:12:57;100651.75;;;3.21;100.00
54540;BME280;40438;52.992;18.604;2023-01-08T05:15:23;100651.88;;;3.20;100.00
54540;BME280;40438;52.992;18.604;2023-01-08T05:17:56;100646.78;;;3.18;100.00
54540;BME280;40438;52.992;18.604;2023-01-08T05:20:21;100636.19;;;3.10;100.00
54540;BME280;40438;52.992;18.604;2023-01-08T05:22:47;100644.94;;;3.19;100.00
54540;BME280;40438;52.992;18.604;2023-01-08T05:25:13;100647.28;;;3.22;100.00
54540;BME280;40438;52.992;18.604;2023-01-08T05:27:39;100653.06;;;3.17;100.00
54540;BME280;40438;52.992;18.604;2023-01-08T05:30:07;100655.53;;;3.11;100.00
54540;BME280;40438;52.992;18.604;2023-01-08T05:32:33;100652.56;;;3.14;100.00
54540;BME280;40438;52.992;18.604;2023-01-08T05:34:59;100647.78;;;3.01;100.00
54540;BME280;40438;52.992;18.604;2023-01-08T05:37:25;100654.09;;;3.08;100.00
54540;BME280;40438;52.992;18.604;2023-01-08T05:39:50;100642.16;;;3.04;100.00
54540;BME280;40438;52.992;18.604;2023-01-08T05:42:16;100624.81;;;3.01;100.00
54540;BME280;40438;52.992;18.604;2023-01-08T05:44:42;100627.63;;;2.92;100.00
54540;BME280;40438;52.992;18.604;2023-01-08T05:47:09;100624.81;;;2.93;100.00
54540;BME280;40438;52.992;18.604;2023-01-08T05:49:35;100621.16;;;2.94;100.00
54540;BME280;40438;52.992;18.604;2023-01-08T05:52:00;100621.69;;;2.90;100.00
54540;BME280;40438;52.992;18.604;2023-01-08T05:54:26;100617.22;;;2.90;100.00
54540;BME280;40438;52.992;18.604;2023-01-08T05:56:52;100611.91;;;2.82;100.00
54540;BME280;40438;52.992;18.604;2023-01-08T05:59:18;100616.72;;;2.78;100.00
54540;BME280;40438;52.992;18.604;2023-01-08T06:01:43;100615.06;;;2.86;100.00
54540;BME280;40438;52.992;18.604;2023-01-08T06:04:11;100622.50;;;2.90;100.00
54540;BME280;40438;52.992;18.604;2023-01-08T06:06:37;100619.50;;;2.85;100.00
54540;BME280;40438;52.992;18.604;2023-01-08T06:09:02;100625.81;;;2.92;100.00
54540;BME280;40438;52.992;18.604;2023-01-08T06:11:28;100620.19;;;2.95;100.00
54540;BME280;40438;52.992;18.604;2023-01-08T06:13:54;100604.97;;;2.89;100.00
54540;BME280;40438;52.992;18.604;2023-01-08T06:16:20;100598.34;;;2.93;100.00
54540;BME280;40438;52.992;18.604;2023-01-08T06:18:46;100589.44;;;2.78;100.00
54540;BME280;40438;52.992;18.604;2023-01-08T06:21:13;100586.78;;;2.86;100.00
54540;BME280;40438;52.992;18.604;2023-01-08T06:23:39;100589.25;;;2.88;100.00
54540;BME280;40438;52.992;18.604;2023-01-08T06:26:05;100589.44;;;2.86;100.00
54540;BME280;40438;52.992;18.604;2023-01-08T06:28:31;100595.56;;;2.87;100.00
54540;BME280;40438;52.992;18.604;2023-01-08T06:30:57;100596.03;;;2.90;100.00
54540;BME280;40438;52.992;18.604;2023-01-08T06:33:23;100592.09;;;2.86;100.00
54540;BME280;40438;52.992;18.604;2023-01-08T06:35:49;100585.47;;;2.82;100.00
54540;BME280;40438;52.992;18.604;2023-01-08T06:38:17;100603.63;;;2.85;100.00
54540;BME280;40438;52.992;18.604;2023-01-08T06:40:42;100621.81;;;2.88;100.00
54540;BME280;40438;52.992;18.604;2023-01-08T06:43:08;100626.81;;;2.83;100.00
54540;BME280;40438;52.992;18.604;2023-01-08T06:45:34;100638.56;;;2.89;100.00
54540;BME280;40438;52.992;18.604;2023-01-08T06:48:00;100643.50;;;2.92;100.00
54540;BME280;40438;52.992;18.604;2023-01-08T06:50:26;100632.44;;;2.80;100.00
54540;BME280;40438;52.992;18.604;2023-01-08T06:52:51;100640.19;;;2.82;100.00
54540;BME280;40438;52.992;18.604;2023-01-08T06:55:19;100642.03;;;2.89;100.00
54540;BME280;40438;52.992;18.604;2023-01-08T06:57:44;100648.63;;;2.93;100.00
54540;BME280;40438;52.992;18.604;2023-01-08T07:00:11;100652.75;;;2.88;100.00
54540;BME280;40438;52.992;18.604;2023-01-08T07:02:37;100646.31;;;2.90;100.00
54540;BME280;40438;52.992;18.604;2023-01-08T07:05:03;100640.34;;;2.88;100.00
54540;BME280;40438;52.992;18.604;2023-01-08T07:07:29;100630.09;;;2.85;100.00
54540;BME280;40438;52.992;18.604;2023-01-08T07:09:55;100637.03;;;2.94;100.00
54540;BME280;40438;52.992;18.604;2023-01-08T07:12:22;100634.88;;;2.98;100.00
54540;BME280;40438;52.992;18.604;2023-01-08T07:14:48;100624.16;;;2.99;100.00
54540;BME280;40438;52.992;18.604;2023-01-08T07:17:13;100621.97;;;2.95;100.00
54540;BME280;40438;52.992;18.604;2023-01-08T07:19:39;100624.00;;;2.93;100.00
54540;BME280;40438;52.992;18.604;2023-01-08T07:22:05;100613.56;;;2.91;100.00
54540;BME280;40438;52.992;18.604;2023-01-08T07:24:31;100623.00;;;2.86;100.00
54540;BME280;40438;52.992;18.604;2023-01-08T07:26:56;100614.25;;;2.77;100.00
54540;BME280;40438;52.992;18.604;2023-01-08T07:29:23;100610.78;;;2.76;100.00
54540;BME280;40438;52.992;18.604;2023-01-08T07:31:49;100624.31;;;2.82;100.00
54540;BME280;40438;52.992;18.604;2023-01-08T07:34:15;100612.94;;;2.73;100.00
54540;BME280;40438;52.992;18.604;2023-01-08T07:36:41;100613.56;;;2.91;100.00
54540;BME280;40438;52.992;18.604;2023-01-08T07:39:06;100618.84;;;2.91;100.00
54540;BME280;40438;52.992;18.604;2023-01-08T07:41:32;100612.59;;;2.92;100.00
54540;BME280;40438;52.992;18.604;2023-01-08T07:43:58;100610.59;;;2.94;100.00
54540;BME280;40438;52.992;18.604;2023-01-08T07:46:25;100605.47;;;2.93;100.00
54540;BME280;40438;52.992;18.604;2023-01-08T07:48:51;100616.19;;;2.91;100.00
54540;BME280;40438;52.992;18.604;2023-01-08T07:51:16;100613.72;;;2.98;100.00
54540;BME280;40438;52.992;18.604;2023-01-08T07:53:42;100605.09;;;3.04;100.00
54540;BME280;40438;52.992;18.604;2023-01-08T07:56:09;100599.19;;;3.02;100.00
54540;BME280;40438;52.992;18.604;2023-01-08T07:58:35;100603.81;;;3.00;100.00
54540;BME280;40438;52.992;18.604;2023-01-08T08:01:01;100604.94;;;3.06;100.00
54540;BME280;40438;52.992;18.604;2023-01-08T08:03:28;100606.28;;;3.01;100.00
54540;BME280;40438;52.992;18.604;2023-01-08T08:05:54;100608.41;;;3.06;100.00
54540;BME280;40438;52.992;18.604;2023-01-08T08:08:19;100609.09;;;3.00;100.00
54540;BME280;40438;52.992;18.604;2023-01-08T08:10:45;100606.09;;;2.95;100.00
54540;BME280;40438;52.992;18.604;2023-01-08T08:13:11;100605.63;;;2.99;100.00
54540;BME280;40438;52.992;18.604;2023-01-08T08:15:38;100603.13;;;3.06;100.00
54540;BME280;40438;52.992;18.604;2023-01-08T08:18:05;100608.94;;;3.01;100.00
54540;BME280;40438;52.992;18.604;2023-01-08T08:20:32;100603.66;;;3.01;100.00
54540;BME280;40438;52.992;18.604;2023-01-08T08:23:02;100596.53;;;3.02;100.00
54540;BME280;40438;52.992;18.604;2023-01-08T08:25:28;100592.88;;;3.11;100.00
54540;BME280;40438;52.992;18.604;2023-01-08T08:27:55;100583.13;;;3.03;100.00
54540;BME280;40438;52.992;18.604;2023-01-08T08:30:21;100574.03;;;2.98;100.00
54540;BME280;40438;52.992;18.604;2023-01-08T08:32:47;100588.75;;;3.00;100.00
54540;BME280;40438;52.992;18.604;2023-01-08T08:35:13;100594.03;;;3.00;100.00
54540;BME280;40438;52.992;18.604;2023-01-08T08:37:40;100594.03;;;3.00;100.00
54540;BME280;40438;52.992;18.604;2023-01-08T08:40:07;100588.59;;;3.02;100.00
54540;BME280;40438;52.992;18.604;2023-01-08T08:42:33;100588.41;;;3.03;100.00
54540;BME280;40438;52.992;18.604;2023-01-08T08:44:59;100580.47;;;3.03;100.00
54540;BME280;40438;52.992;18.604;2023-01-08T08:47:25;100577.19;;;3.01;100.00
54540;BME280;40438;52.992;18.604;2023-01-08T08:49:50;100554.63;;;3.14;100.00
54540;BME280;40438;52.992;18.604;2023-01-08T08:52:16;100559.28;;;3.12;100.00
54540;BME280;40438;52.992;18.604;2023-01-08T08:54:43;100551.97;;;3.14;100.00
54540;BME280;40438;52.992;18.604;2023-01-08T08:57:10;100548.66;;;3.20;100.00
54540;BME280;40438;52.992;18.604;2023-01-08T08:59:36;100552.94;;;3.29;100.00
54540;BME280;40438;52.992;18.604;2023-01-08T09:02:02;100561.19;;;3.34;100.00
54540;BME280;40438;52.992;18.604;2023-01-08T09:04:29;100561.34;;;3.33;100.00
54540;BME280;40438;52.992;18.604;2023-01-08T09:06:55;100553.72;;;3.38;100.00
54540;BME280;40438;52.992;18.604;2023-01-08T09:09:20;100543.97;;;3.38;100.00
54540;BME280;40438;52.992;18.604;2023-01-08T09:11:47;100538.81;;;3.45;100.00
54540;BME280;40438;52.992;18.604;2023-01-08T09:14:13;100538.81;;;3.45;100.00
54540;BME280;40438;52.992;18.604;2023-01-08T09:16:39;100538.66;;;3.46;100.00
54540;BME280;40438;52.992;18.604;2023-01-08T09:19:05;100541.59;;;3.52;100.00
54540;BME280;40438;52.992;18.604;2023-01-08T09:21:31;100539.41;;;3.55;100.00
54540;BME280;40438;52.992;18.604;2023-01-08T09:23:57;100536.25;;;3.60;100.00
54540;BME280;40438;52.992;18.604;2023-01-08T09:26:22;100543.88;;;3.55;100.00
54540;BME280;40438;52.992;18.604;2023-01-08T09:28:50;100529.31;;;3.59;100.00
54540;BME280;40438;52.992;18.604;2023-01-08T09:31:15;100528.28;;;3.68;100.00
54540;BME280;40438;52.992;18.604;2023-01-08T09:33:41;100524.84;;;3.59;100.00
54540;BME280;40438;52.992;18.604;2023-01-08T09:36:09;100516.81;;;3.76;100.00
54540;BME280;40438;52.992;18.604;2023-01-08T09:38:35;100523.69;;;3.85;100.00
54540;BME280;40438;52.992;18.604;2023-01-08T09:41:03;100520.00;;;3.94;100.00
54540;BME280;40438;52.992;18.604;2023-01-08T09:43:32;100521.47;;;3.97;100.00
54540;BME280;40438;52.992;18.604;2023-01-08T09:46:04;100520.97;;;3.93;100.00
54540;BME280;40438;52.992;18.604;2023-01-08T09:48:33;100513.88;;;3.93;100.00
54540;BME280;40438;52.992;18.604;2023-01-08T09:51:00;100503.09;;;3.95;100.00
54540;BME280;40438;52.992;18.604;2023-01-08T09:53:26;100510.38;;;3.93;100.00
54540;BME280;40438;52.992;18.604;2023-01-08T09:55:55;100501.22;;;4.04;100.00
54540;BME280;40438;52.992;18.604;2023-01-08T09:58:29;100498.84;;;4.09;100.00
54540;BME280;40438;52.992;18.604;2023-01-08T10:00:57;100503.78;;;4.12;100.00
54540;BME280;40438;52.992;18.604;2023-01-08T10:03:29;100503.78;;;4.12;100.00
54540;BME280;40438;52.992;18.604;2023-01-08T10:05:55;100507.44;;;4.11;100.00
54540;BME280;40438;52.992;18.604;2023-01-08T10:08:21;100513.88;;;4.16;100.00
54540;BME280;40438;52.992;18.604;2023-01-08T10:10:47;100494.75;;;4.21;100.00
54540;BME280;40438;52.992;18.604;2023-01-08T10:13:14;100490.59;;;4.27;100.00
54540;BME280;40438;52.992;18.604;2023-01-08T10:15:40;100492.22;;;4.28;100.00
54540;BME280;40438;52.992;18.604;2023-01-08T10:18:11;100484.09;;;4.29;100.00
54540;BME280;40438;52.992;18.604;2023-01-08T10:20:39;100484.91;;;4.30;100.00
54540;BME280;40438;52.992;18.604;2023-01-08T10:23:09;100476.25;;;4.36;100.00
54540;BME280;40438;52.992;18.604;2023-01-08T10:25:48;100473.69;;;4.42;100.00
54540;BME280;40438;52.992;18.604;2023-01-08T10:28:18;100469.97;;;4.52;100.00
54540;BME280;40438;52.992;18.604;2023-01-08T10:30:45;100485.44;;;4.48;100.00
54540;BME280;40438;52.992;18.604;2023-01-08T10:33:15;100473.06;;;4.55;100.00
54540;BME280;40438;52.992;18.604;2023-01-08T10:35:51;100462.28;;;4.72;100.00
54540;BME280;40438;52.992;18.604;2023-01-08T10:38:27;100456.16;;;4.71;100.00
54540;BME280;40438;52.992;18.604;2023-01-08T10:40:54;100458.53;;;4.66;100.00
54540;BME280;40438;52.992;18.604;2023-01-08T10:43:24;100457.53;;;4.67;100.00
54540;BME280;40438;52.992;18.604;2023-01-08T10:45:57;100456.53;;;4.68;100.00
54540;BME280;40438;52.992;18.604;2023-01-08T10:48:28;100457.34;;;4.69;100.00
54540;BME280;40438;52.992;18.604;2023-01-08T10:51:05;100456.16;;;4.71;100.00
54540;BME280;40438;52.992;18.604;2023-01-08T10:53:31;100443.56;;;4.73;100.00
54540;BME280;40438;52.992;18.604;2023-01-08T10:55:58;100458.53;;;4.66;100.00
54540;BME280;40438;52.992;18.604;2023-01-08T10:58:24;100452.50;;;4.72;100.00
54540;BME280;40438;52.992;18.604;2023-01-08T11:00:49;100448.50;;;4.76;100.00
54540;BME280;40438;52.992;18.604;2023-01-08T11:03:21;100445.38;;;4.73;100.00
54540;BME280;40438;52.992;18.604;2023-01-08T11:05:49;100440.78;;;4.81;100.00
54540;BME280;40438;52.992;18.604;2023-01-08T11:08:19;100439.88;;;4.74;100.00
54540;BME280;40438;52.992;18.604;2023-01-08T11:10:53;100435.59;;;4.73;100.00
54540;BME280;40438;52.992;18.604;2023-01-08T11:13:19;100451.16;;;4.76;100.00
54540;BME280;40438;52.992;18.604;2023-01-08T11:15:45;100446.09;;;4.81;100.00
54540;BME280;40438;52.992;18.604;2023-01-08T11:18:18;100450.78;;;4.79;100.00
54540;BME280;40438;52.992;18.604;2023-01-08T11:20:45;100435.47;;;4.81;100.00
54540;BME280;40438;52.992;18.604;2023-01-08T11:23:15;100423.97;;;4.89;100.00
54540;BME280;40438;52.992;18.604;2023-01-08T11:25:46;100406.38;;;4.88;100.00
54540;BME280;40438;52.992;18.604;2023-01-08T11:28:28;100432.28;;;4.86;100.00
54540;BME280;40438;52.992;18.604;2023-01-08T11:31:01;100413.78;;;4.78;100.00
54540;BME280;40438;52.992;18.604;2023-01-08T11:33:31;100411.06;;;4.86;100.00
54540;BME280;40438;52.992;18.604;2023-01-08T11:36:06;100394.31;;;4.85;100.00
54540;BME280;40438;52.992;18.604;2023-01-08T11:38:34;100393.66;;;4.83;100.00
54540;BME280;40438;52.992;18.604;2023-01-08T11:41:10;100390.28;;;4.89;100.00
54540;BME280;40438;52.992;18.604;2023-01-08T11:43:45;100400.16;;;4.96;100.00
54540;BME280;40438;52.992;18.604;2023-01-08T11:46:28;100390.53;;;4.95;100.00
54540;BME280;40438;52.992;18.604;2023-01-08T11:51:59;100384.28;;;5.17;100.00
54540;BME280;40438;52.992;18.604;2023-01-08T11:54:42;100369.97;;;5.18;100.00
54540;BME280;40438;52.992;18.604;2023-01-08T11:57:18;100364.53;;;5.26;100.00
54540;BME280;40438;52.992;18.604;2023-01-08T11:59:55;100356.03;;;5.31;100.00
54540;BME280;40438;52.992;18.604;2023-01-08T12:02:36;100359.63;;;5.23;100.00
54540;BME280;40438;52.992;18.604;2023-01-08T12:05:28;100374.28;;;5.19;100.00
54540;BME280;40438;52.992;18.604;2023-01-08T12:07:59;100383.25;;;5.18;100.00
54540;BME280;40438;52.992;18.604;2023-01-08T12:10:34;100382.44;;;5.18;100.00
54540;BME280;40438;52.992;18.604;2023-01-08T12:13:16;100393.88;;;5.18;100.00
54540;BME280;40438;52.992;18.604;2023-01-08T12:15:50;100401.09;;;5.24;100.00
54540;BME280;40438;52.992;18.604;2023-01-08T12:18:26;100403.09;;;5.22;100.00
54540;BME280;40438;52.992;18.604;2023-01-08T12:21:00;100396.41;;;5.26;100.00
54540;BME280;40438;52.992;18.604;2023-01-08T12:23:39;100401.09;;;5.24;100.00
54540;BME280;40438;52.992;18.604;2023-01-08T12:26:15;100393.69;;;5.20;100.00
54540;BME280;40438;52.992;18.604;2023-01-08T12:29:04;100386.06;;;5.31;100.00
54540;BME280;40438;52.992;18.604;2023-01-08T12:34:35;100391.81;;;5.35;100.00
54540;BME280;40438;52.992;18.604;2023-01-08T12:37:06;100369.63;;;5.43;100.00
54540;BME280;40438;52.992;18.604;2023-01-08T12:39:42;100377.41;;;5.44;100.00
54540;BME280;40438;52.992;18.604;2023-01-08T12:42:13;100381.69;;;5.45;100.00
54540;BME280;40438;52.992;18.604;2023-01-08T12:44:44;100368.88;;;5.49;100.00
54540;BME280;40438;52.992;18.604;2023-01-08T12:47:15;100366.66;;;5.52;100.00
54540;BME280;40438;52.992;18.604;2023-01-08T12:49:47;100365.06;;;5.58;100.00
54540;BME280;40438;52.992;18.604;2023-01-08T12:52:18;100372.16;;;5.51;100.00
54540;BME280;40438;52.992;18.604;2023-01-08T12:54:51;100373.81;;;5.52;100.00